sensor_id;sensor_type;location;lat;lon;timestamp;pressure;altitude;pressure_sealevel;temperature;humidity
68456;BME280;55437;55.046;38.838;2023-01-27T00:00:16;100442.53;;;-0.58;62.72
68456;BME280;55437;55.046;38.838;2023-01-27T00:02:43;100447.63;;;-0.57;62.57
68456;BME280;55437;55.046;38.838;2023-01-27T00:05:11;100448.53;;;-0.53;62.64
68456;BME280;55437;55.046;38.838;2023-01-27T00:07:37;100453.31;;;-0.65;62.73
68456;BME280;55437;55.046;38.838;2023-01-27T00:10:04;100448.72;;;-0.82;63.56
68456;BME280;55437;55.046;38.838;2023-01-27T00:12:30;100444.69;;;-0.75;63.29
68456;BME280;55437;55.046;38.838;2023-01-27T00:15:15;100438.31;;;-0.59;63.36
68456;BME280;55437;55.046;38.838;2023-01-27T00:17:41;100444.41;;;-0.51;62.73
68456;BME280;55437;55.046;38.838;2023-01-27T00:20:08;100434.13;;;-0.59;62.96
68456;BME280;55437;55.046;38.838;2023-01-27T00:22:34;100431.78;;;-0.51;62.97
68456;BME280;55437;55.046;38.838;2023-01-27T00:25:19;100433.34;;;-0.56;62.74
68456;BME280;55437;55.046;38.838;2023-01-27T00:27:45;100433.25;;;-0.59;62.91
68456;BME280;55437;55.046;38.838;2023-01-27T00:30:11;100426.59;;;-0.57;62.87
68456;BME280;55437;55.046;38.838;2023-01-27T00:32:38;100423.91;;;-0.65;62.85
68456;BME280;55437;55.046;38.838;2023-01-27T00:35:22;100425.34;;;-0.76;63.02
68456;BME280;55437;55.046;38.838;2023-01-27T00:37:48;100419.47;;;-0.75;63.29
68456;BME280;55437;55.046;38.838;2023-01-27T00:40:15;100422.28;;;-0.63;62.82
68456;BME280;55437;55.046;38.838;2023-01-27T00:42:42;100424.00;;;-0.60;62.69
68456;BME280;55437;55.046;38.838;2023-01-27T00:45:08;100417.34;;;-0.57;62.52
68456;BME280;55437;55.046;38.838;2023-01-27T00:47:52;100415.13;;;-0.43;62.03
68456;BME280;55437;55.046;38.838;2023-01-27T00:50:19;100417.75;;;-0.39;62.22
68456;BME280;55437;55.046;38.838;2023-01-27T00:52:45;100409.47;;;-0.33;61.88
68456;BME280;55437;55.046;38.838;2023-01-27T00:55:11;100419.47;;;-0.36;61.58
68456;BME280;55437;55.046;38.838;2023-01-27T00:57:40;100411.91;;;-0.38;62.08
68456;BME280;55437;55.046;38.838;2023-01-27T01:00:07;100415.16;;;-0.42;61.74
68456;BME280;55437;55.046;38.838;2023-01-27T01:02:34;100417.50;;;-0.51;62.10
68456;BME280;55437;55.046;38.838;2023-01-27T01:05:00;100408.31;;;-0.47;62.03
68456;BME280;55437;55.046;38.838;2023-01-27T01:07:28;100400.97;;;-0.38;61.90
68456;BME280;55437;55.046;38.838;2023-01-27T01:09:54;100405.19;;;-0.37;61.72
68456;BME280;55437;55.046;38.838;2023-01-27T01:12:20;100402.00;;;-0.28;61.65
68456;BME280;55437;55.046;38.838;2023-01-27T01:14:48;100400.34;;;-0.26;61.45
68456;BME280;55437;55.046;38.838;2023-01-27T01:17:14;100404.59;;;-0.24;61.70
68456;BME280;55437;55.046;38.838;2023-01-27T01:19:40;100401.03;;;-0.33;61.67
68456;BME280;55437;55.046;38.838;2023-01-27T01:22:05;100402.66;;;-0.37;62.08
68456;BME280;55437;55.046;38.838;2023-01-27T01:24:31;100397.69;;;-0.32;61.49
68456;BME280;55437;55.046;38.838;2023-01-27T01:26:57;100400.19;;;-0.34;61.95
68456;BME280;55437;55.046;38.838;2023-01-27T01:29:22;100401.97;;;-0.30;61.72
68456;BME280;55437;55.046;38.838;2023-01-27T01:31:51;100396.16;;;-0.26;61.72
68456;BME280;55437;55.046;38.838;2023-01-27T01:34:16;100400.50;;;-0.19;61.57
68456;BME280;55437;55.046;38.838;2023-01-27T01:36:42;100389.59;;;-0.18;60.98
68456;BME280;55437;55.046;38.838;2023-01-27T01:39:08;100387.91;;;-0.17;61.27
68456;BME280;55437;55.046;38.838;2023-01-27T01:41:34;100392.19;;;-0.15;61.09
68456;BME280;55437;55.046;38.838;2023-01-27T01:44:31;100383.84;;;-0.12;60.97
68456;BME280;55437;55.046;38.838;2023-01-27T01:46:58;100394.81;;;-0.09;60.76
68456;BME280;55437;55.046;38.838;2023-01-27T01:49:32;100383.06;;;-0.08;61.10
68456;BME280;55437;55.046;38.838;2023-01-27T01:52:03;100385.53;;;-0.10;60.73
68456;BME280;55437;55.046;38.838;2023-01-27T01:54:35;100382.91;;;-0.16;60.84
68456;BME280;55437;55.046;38.838;2023-01-27T01:57:17;100386.09;;;-0.24;61.32
68456;BME280;55437;55.046;38.838;2023-01-27T01:59:50;100391.91;;;-0.28;60.96
68456;BME280;55437;55.046;38.838;2023-01-27T02:02:20;100375.91;;;-0.29;60.98
68456;BME280;55437;55.046;38.838;2023-01-27T02:05:07;100385.41;;;-0.56;61.18
68456;BME280;55437;55.046;38.838;2023-01-27T02:07:54;100386.91;;;-0.66;61.98
68456;BME280;55437;55.046;38.838;2023-01-27T02:10:23;100392.13;;;-0.57;61.20
68456;BME280;55437;55.046;38.838;2023-01-27T02:12:49;100392.31;;;-0.49;61.22
68456;BME280;55437;55.046;38.838;2023-01-27T02:15:15;100392.50;;;-0.40;61.11
68456;BME280;55437;55.046;38.838;2023-01-27T02:17:41;100382.53;;;-0.34;60.97
68456;BME280;55437;55.046;38.838;2023-01-27T02:20:39;100386.84;;;-0.28;60.58
68456;BME280;55437;55.046;38.838;2023-01-27T02:28:28;100380.63;;;-0.44;60.66
68456;BME280;55437;55.046;38.838;2023-01-27T02:30:55;100387.19;;;-0.52;61.26
68456;BME280;55437;55.046;38.838;2023-01-27T02:33:21;100388.13;;;-0.49;61.06
68456;BME280;55437;55.046;38.838;2023-01-27T02:38:33;100371.53;;;-0.38;60.84
68456;BME280;55437;55.046;38.838;2023-01-27T02:41:15;100376.66;;;-0.33;60.84
68456;BME280;55437;55.046;38.838;2023-01-27T02:43:43;100373.34;;;-0.30;60.84
68456;BME280;55437;55.046;38.838;2023-01-27T02:46:09;100366.56;;;-0.33;60.55
68456;BME280;55437;55.046;38.838;2023-01-27T02:48:34;100373.47;;;-0.26;60.31
68456;BME280;55437;55.046;38.838;2023-01-27T02:51:00;100371.91;;;-0.19;60.02
68456;BME280;55437;55.046;38.838;2023-01-27T02:53:28;100355.19;;;-0.14;60.02
68456;BME280;55437;55.046;38.838;2023-01-27T02:55:54;100361.13;;;-0.11;59.83
68456;BME280;55437;55.046;38.838;2023-01-27T02:58:20;100360.31;;;-0.10;60.04
68456;BME280;55437;55.046;38.838;2023-01-27T03:00:50;100361.94;;;-0.12;60.13
68456;BME280;55437;55.046;38.838;2023-01-27T03:03:16;100365.16;;;-0.20;60.27
68456;BME280;55437;55.046;38.838;2023-01-27T03:05:41;100355.91;;;-0.20;60.01
68456;BME280;55437;55.046;38.838;2023-01-27T03:08:08;100356.44;;;-0.34;60.45
68456;BME280;55437;55.046;38.838;2023-01-27T03:10:34;100353.78;;;-0.42;60.71
68456;BME280;55437;55.046;38.838;2023-01-27T03:13:00;100354.53;;;-0.46;60.96
68456;BME280;55437;55.046;38.838;2023-01-27T03:15:25;100349.63;;;-0.40;60.36
68456;BME280;55437;55.046;38.838;2023-01-27T03:18:10;100352.06;;;-0.43;61.09
68456;BME280;55437;55.046;38.838;2023-01-27T03:20:45;100357.19;;;-0.40;60.63
68456;BME280;55437;55.046;38.838;2023-01-27T03:23:13;100354.44;;;-0.51;60.71
68456;BME280;55437;55.046;38.838;2023-01-27T03:25:42;100351.53;;;-0.69;61.05
68456;BME280;55437;55.046;38.838;2023-01-27T03:28:08;100355.69;;;-0.71;61.29
68456;BME280;55437;55.046;38.838;2023-01-27T03:30:42;100360.88;;;-0.65;61.35
68456;BME280;55437;55.046;38.838;2023-01-27T03:33:18;100357.69;;;-0.56;60.74
68456;BME280;55437;55.046;38.838;2023-01-27T03:35:50;100357.84;;;-0.47;60.54
68456;BME280;55437;55.046;38.838;2023-01-27T03:38:36;100349.53;;;-0.43;60.97
68456;BME280;55437;55.046;38.838;2023-01-27T03:41:20;100345.38;;;-0.41;60.75
68456;BME280;55437;55.046;38.838;2023-01-27T03:44:04;100345.31;;;-0.44;60.78
68456;BME280;55437;55.046;38.838;2023-01-27T03:46:48;100342.94;;;-0.38;60.76
68456;BME280;55437;55.046;38.838;2023-01-27T03:49:13;100343.13;;;-0.29;60.63
68456;BME280;55437;55.046;38.838;2023-01-27T03:51:39;100351.56;;;-0.27;60.42
68456;BME280;55437;55.046;38.838;2023-01-27T03:54:05;100348.84;;;-0.38;61.18
68456;BME280;55437;55.046;38.838;2023-01-27T03:56:30;100341.19;;;-0.41;61.00
68456;BME280;55437;55.046;38.838;2023-01-27T03:58:56;100340.53;;;-0.32;61.00
68456;BME280;55437;55.046;38.838;2023-01-27T04:01:23;100339.38;;;-0.46;61.04
68456;BME280;55437;55.046;38.838;2023-01-27T04:03:50;100343.38;;;-0.57;61.47
68456;BME280;55437;55.046;38.838;2023-01-27T04:06:37;100346.69;;;-0.58;61.40
68456;BME280;55437;55.046;38.838;2023-01-27T04:09:30;100346.09;;;-0.47;61.29
68456;BME280;55437;55.046;38.838;2023-01-27T04:12:01;100340.38;;;-0.40;61.05
68456;BME280;55437;55.046;38.838;2023-01-27T04:14:33;100348.97;;;-0.30;61.09
68456;BME280;55437;55.046;38.838;2023-01-27T04:16:59;100344.88;;;-0.25;60.63
68456;BME280;55437;55.046;38.838;2023-01-27T04:19:26;100358.16;;;-0.33;61.14
68456;BME280;55437;55.046;38.838;2023-01-27T04:21:52;100352.34;;;-0.29;60.77
68456;BME280;55437;55.046;38.838;2023-01-27T04:24:18;100348.25;;;-0.24;60.87
68456;BME280;55437;55.046;38.838;2023-01-27T04:27:01;100347.94;;;-0.40;61.12
68456;BME280;55437;55.046;38.838;2023-01-27T04:29:29;100352.09;;;-0.42;61.14
68456;BME280;55437;55.046;38.838;2023-01-27T04:31:56;100356.16;;;-0.50;61.27
68456;BME280;55437;55.046;38.838;2023-01-27T04:34:23;100366.78;;;-0.63;61.66
68456;BME280;55437;55.046;38.838;2023-01-27T04:36:48;100361.84;;;-0.58;61.95
68456;BME280;55437;55.046;38.838;2023-01-27T04:39:15;100354.41;;;-0.52;61.59
68456;BME280;55437;55.046;38.838;2023-01-27T04:41:42;100363.00;;;-0.43;61.73
68456;BME280;55437;55.046;38.838;2023-01-27T04:44:08;100366.28;;;-0.47;61.46
68456;BME280;55437;55.046;38.838;2023-01-27T04:46:35;100373.59;;;-0.59;61.84
68456;BME280;55437;55.046;38.838;2023-01-27T04:49:01;100372.03;;;-0.54;61.74
68456;BME280;55437;55.046;38.838;2023-01-27T04:51:27;100381.44;;;-0.45;61.61
68456;BME280;55437;55.046;38.838;2023-01-27T04:53:53;100378.22;;;-0.40;61.33
68456;BME280;55437;55.046;38.838;2023-01-27T04:56:26;100377.53;;;-0.31;61.53
68456;BME280;55437;55.046;38.838;2023-01-27T04:58:53;100384.47;;;-0.21;61.30
68456;BME280;55437;55.046;38.838;2023-01-27T05:01:19;100376.84;;;-0.24;60.91
68456;BME280;55437;55.046;38.838;2023-01-27T05:03:45;100387.78;;;-0.23;61.24
68456;BME280;55437;55.046;38.838;2023-01-27T05:06:11;100384.44;;;-0.22;61.22
68456;BME280;55437;55.046;38.838;2023-01-27T05:08:38;100383.66;;;-0.20;61.44
68456;BME280;55437;55.046;38.838;2023-01-27T05:11:04;100382.84;;;-0.19;61.39
68456;BME280;55437;55.046;38.838;2023-01-27T05:13:30;100380.28;;;-0.20;61.28
68456;BME280;55437;55.046;38.838;2023-01-27T05:16:23;100388.03;;;-0.13;61.22
68456;BME280;55437;55.046;38.838;2023-01-27T05:18:51;100387.28;;;-0.07;61.24
68456;BME280;55437;55.046;38.838;2023-01-27T05:21:20;100378.88;;;-0.06;61.11
68456;BME280;55437;55.046;38.838;2023-01-27T05:23:47;100381.38;;;-0.08;61.39
68456;BME280;55437;55.046;38.838;2023-01-27T05:26:14;100381.16;;;-0.18;61.35
68456;BME280;55437;55.046;38.838;2023-01-27T05:28:43;100384.47;;;-0.21;61.54
68456;BME280;55437;55.046;38.838;2023-01-27T05:33:40;100389.34;;;-0.30;61.83
68456;BME280;55437;55.046;38.838;2023-01-27T05:36:12;100389.69;;;-0.12;61.93
68456;BME280;55437;55.046;38.838;2023-01-27T05:38:38;100387.41;;;0.00;61.37
68456;BME280;55437;55.046;38.838;2023-01-27T05:41:05;100394.88;;;-0.06;61.40
68456;BME280;55437;55.046;38.838;2023-01-27T05:43:34;100394.97;;;-0.01;61.81
68456;BME280;55437;55.046;38.838;2023-01-27T05:46:08;100403.25;;;-0.08;61.55
68456;BME280;55437;55.046;38.838;2023-01-27T05:48:36;100397.47;;;-0.03;61.72
68456;BME280;55437;55.046;38.838;2023-01-27T05:51:03;100399.38;;;0.09;61.56
68456;BME280;55437;55.046;38.838;2023-01-27T05:53:29;100398.69;;;0.18;61.64
68456;BME280;55437;55.046;38.838;2023-01-27T05:55:55;100399.63;;;0.21;61.13
68456;BME280;55437;55.046;38.838;2023-01-27T05:58:21;100403.50;;;0.06;61.21
68456;BME280;55437;55.046;38.838;2023-01-27T06:00:47;100406.03;;;0.06;61.56
68456;BME280;55437;55.046;38.838;2023-01-27T06:03:13;100407.81;;;0.10;61.65
68456;BME280;55437;55.046;38.838;2023-01-27T06:05:48;100401.13;;;0.12;61.37
68456;BME280;55437;55.046;38.838;2023-01-27T06:08:15;100404.59;;;0.18;61.51
68456;BME280;55437;55.046;38.838;2023-01-27T06:10:41;100411.09;;;0.06;61.45
68456;BME280;55437;55.046;38.838;2023-01-27T06:13:06;100401.88;;;0.08;61.82
68456;BME280;55437;55.046;38.838;2023-01-27T06:15:32;100401.97;;;0.14;61.76
68456;BME280;55437;55.046;38.838;2023-01-27T06:17:58;100401.13;;;0.13;61.75
68456;BME280;55437;55.046;38.838;2023-01-27T06:20:23;100398.00;;;0.26;61.61
68456;BME280;55437;55.046;38.838;2023-01-27T06:22:49;100407.47;;;0.38;61.44
68456;BME280;55437;55.046;38.838;2023-01-27T06:25:15;100403.34;;;0.42;60.92
68456;BME280;55437;55.046;38.838;2023-01-27T06:27:41;100412.53;;;0.38;61.10
68456;BME280;55437;55.046;38.838;2023-01-27T06:30:07;100410.09;;;0.43;61.19
68456;BME280;55437;55.046;38.838;2023-01-27T06:32:35;100414.44;;;0.48;61.30
68456;BME280;55437;55.046;38.838;2023-01-27T06:35:01;100411.06;;;0.48;61.07
68456;BME280;55437;55.046;38.838;2023-01-27T06:37:29;100414.63;;;0.59;60.93
68456;BME280;55437;55.046;38.838;2023-01-27T06:39:55;100420.56;;;0.64;60.91
68456;BME280;55437;55.046;38.838;2023-01-27T06:42:21;100419.78;;;0.66;60.79
68456;BME280;55437;55.046;38.838;2023-01-27T06:44:46;100424.84;;;0.66;60.83
68456;BME280;55437;55.046;38.838;2023-01-27T06:47:12;100426.50;;;0.66;60.82
68456;BME280;55437;55.046;38.838;2023-01-27T06:49:38;100427.34;;;0.65;60.68
68456;BME280;55437;55.046;38.838;2023-01-27T06:52:03;100420.56;;;0.62;60.76
68456;BME280;55437;55.046;38.838;2023-01-27T06:54:29;100424.84;;;0.66;60.91
68456;BME280;55437;55.046;38.838;2023-01-27T06:56:55;100428.28;;;0.70;60.94
68456;BME280;55437;55.046;38.838;2023-01-27T06:59:20;100425.06;;;0.79;60.89
68456;BME280;55437;55.046;38.838;2023-01-27T07:01:46;100427.66;;;0.85;60.87
68456;BME280;55437;55.046;38.838;2023-01-27T07:04:12;100426.91;;;0.89;60.51
68456;BME280;55437;55.046;38.838;2023-01-27T07:06:37;100430.19;;;0.85;60.77
68456;BME280;55437;55.046;38.838;2023-01-27T07:09:03;100429.38;;;0.84;60.92
68456;BME280;55437;55.046;38.838;2023-01-27T07:11:29;100423.56;;;0.90;60.54
68456;BME280;55437;55.046;38.838;2023-01-27T07:13:55;100434.66;;;0.99;60.64
68456;BME280;55437;55.046;38.838;2023-01-27T07:16:20;100427.25;;;1.12;60.23
68456;BME280;55437;55.046;38.838;2023-01-27T07:18:46;100423.22;;;1.23;60.11
68456;BME280;55437;55.046;38.838;2023-01-27T07:21:12;100428.34;;;1.27;60.09
68456;BME280;55437;55.046;38.838;2023-01-27T07:23:38;100433.38;;;1.24;60.14
68456;BME280;55437;55.046;38.838;2023-01-27T07:26:04;100427.50;;;1.27;60.02
68456;BME280;55437;55.046;38.838;2023-01-27T07:28:29;100420.72;;;1.24;60.23
68456;BME280;55437;55.046;38.838;2023-01-27T07:30:59;100425.16;;;1.39;60.01
68456;BME280;55437;55.046;38.838;2023-01-27T07:33:25;100436.25;;;1.49;59.42
68456;BME280;55437;55.046;38.838;2023-01-27T07:35:51;100432.78;;;1.40;59.69
68456;BME280;55437;55.046;38.838;2023-01-27T07:38:16;100438.56;;;1.33;59.98
68456;BME280;55437;55.046;38.838;2023-01-27T07:40:42;100440.91;;;1.21;60.19
68456;BME280;55437;55.046;38.838;2023-01-27T07:43:09;100441.00;;;1.27;60.33
68456;BME280;55437;55.046;38.838;2023-01-27T07:45:36;100446.31;;;1.44;60.03
68456;BME280;55437;55.046;38.838;2023-01-27T07:48:03;100443.78;;;1.42;59.80
68456;BME280;55437;55.046;38.838;2023-01-27T07:50:29;100436.88;;;1.32;59.89
68456;BME280;55437;55.046;38.838;2023-01-27T07:53:03;100442.78;;;1.34;59.99
68456;BME280;55437;55.046;38.838;2023-01-27T07:55:29;100440.25;;;1.34;59.92
68456;BME280;55437;55.046;38.838;2023-01-27T07:57:56;100449.69;;;1.46;59.81
68456;BME280;55437;55.046;38.838;2023-01-27T08:00:22;100449.66;;;1.41;59.89
68456;BME280;55437;55.046;38.838;2023-01-27T08:02:52;100450.56;;;1.47;59.91
68456;BME280;55437;55.046;38.838;2023-01-27T08:05:19;100447.97;;;1.42;59.98
68456;BME280;55437;55.046;38.838;2023-01-27T08:07:45;100455.50;;;1.37;60.14
68456;BME280;55437;55.046;38.838;2023-01-27T08:10:12;100453.72;;;1.33;60.44
68456;BME280;55437;55.046;38.838;2023-01-27T08:12:38;100452.25;;;1.44;60.27
68456;BME280;55437;55.046;38.838;2023-01-27T08:15:04;100443.94;;;1.55;59.85
68456;BME280;55437;55.046;38.838;2023-01-27T08:17:30;100458.56;;;1.75;59.58
68456;BME280;55437;55.046;38.838;2023-01-27T08:19:56;100454.41;;;1.82;59.08
68456;BME280;55437;55.046;38.838;2023-01-27T08:22:22;100445.19;;;1.86;59.46
68456;BME280;55437;55.046;38.838;2023-01-27T08:24:48;100445.97;;;1.81;59.51
68456;BME280;55437;55.046;38.838;2023-01-27T08:27:15;100445.91;;;1.75;59.55
68456;BME280;55437;55.046;38.838;2023-01-27T08:29:41;100441.69;;;1.76;59.78
68456;BME280;55437;55.046;38.838;2023-01-27T08:32:07;100446.81;;;1.82;59.51
68456;BME280;55437;55.046;38.838;2023-01-27T08:34:33;100448.63;;;1.89;59.48
68456;BME280;55437;55.046;38.838;2023-01-27T08:36:59;100443.66;;;1.98;59.53
68456;BME280;55437;55.046;38.838;2023-01-27T08:39:24;100443.69;;;2.00;59.07
68456;BME280;55437;55.046;38.838;2023-01-27T08:41:51;100441.94;;;1.93;59.33
68456;BME280;55437;55.046;38.838;2023-01-27T08:44:17;100444.47;;;1.96;59.01
68456;BME280;55437;55.046;38.838;2023-01-27T08:46:42;100441.13;;;1.97;59.31
68456;BME280;55437;55.046;38.838;2023-01-27T08:49:08;100442.94;;;2.08;59.21
68456;BME280;55437;55.046;38.838;2023-01-27T08:51:34;100439.75;;;2.23;59.09
68456;BME280;55437;55.046;38.838;2023-01-27T08:53:59;100439.84;;;2.29;58.70
68456;BME280;55437;55.046;38.838;2023-01-27T08:56:25;100438.84;;;2.20;58.70
68456;BME280;55437;55.046;38.838;2023-01-27T08:58:51;100444.47;;;1.96;59.50
68456;BME280;55437;55.046;38.838;2023-01-27T09:01:18;100441.06;;;1.94;59.62
68456;BME280;55437;55.046;38.838;2023-01-27T09:03:44;100441.22;;;2.06;59.60
68456;BME280;55437;55.046;38.838;2023-01-27T09:06:11;100440.53;;;2.19;58.86
68456;BME280;55437;55.046;38.838;2023-01-27T09:08:39;100441.28;;;2.10;59.19
68456;BME280;55437;55.046;38.838;2023-01-27T09:11:16;100442.94;;;2.08;59.08
68456;BME280;55437;55.046;38.838;2023-01-27T09:13:42;100437.00;;;2.05;59.22
68456;BME280;55437;55.046;38.838;2023-01-27T09:16:08;100436.19;;;2.09;59.06
68456;BME280;55437;55.046;38.838;2023-01-27T09:18:35;100434.69;;;2.23;58.91
68456;BME280;55437;55.046;38.838;2023-01-27T09:21:05;100432.25;;;2.34;58.92
68456;BME280;55437;55.046;38.838;2023-01-27T09:23:34;100437.22;;;2.25;58.94
68456;BME280;55437;55.046;38.838;2023-01-27T09:26:00;100432.03;;;2.12;59.26
68456;BME280;55437;55.046;38.838;2023-01-27T09:28:26;100433.72;;;2.12;59.38
68456;BME280;55437;55.046;38.838;2023-01-27T09:30:56;100425.31;;;2.17;59.61
68456;BME280;55437;55.046;38.838;2023-01-27T09:33:22;100420.41;;;2.33;59.00
68456;BME280;55437;55.046;38.838;2023-01-27T09:35:53;100424.03;;;2.56;58.53
68456;BME280;55437;55.046;38.838;2023-01-27T09:38:21;100424.03;;;2.56;58.56
68456;BME280;55437;55.046;38.838;2023-01-27T09:44:11;100429.72;;;2.32;58.56
68456;BME280;55437;55.046;38.838;2023-01-27T09:46:49;100430.59;;;2.36;58.95
68456;BME280;55437;55.046;38.838;2023-01-27T09:54:47;100433.16;;;2.39;58.83
68456;BME280;55437;55.046;38.838;2023-01-27T10:00:29;100428.09;;;2.39;58.59
68456;BME280;55437;55.046;38.838;2023-01-27T10:05:53;100428.00;;;2.31;58.87
68456;BME280;55437;55.046;38.838;2023-01-27T10:11:15;100425.25;;;2.11;59.44
68456;BME280;55437;55.046;38.838;2023-01-27T10:13:53;100431.19;;;2.12;59.36
68456;BME280;55437;55.046;38.838;2023-01-27T10:19:05;100428.53;;;2.01;59.84
68456;BME280;55437;55.046;38.838;2023-01-27T10:21:44;100432.66;;;1.96;59.87
68456;BME280;55437;55.046;38.838;2023-01-27T10:24:35;100428.44;;;1.97;59.90
68456;BME280;55437;55.046;38.838;2023-01-27T10:27:07;100426.72;;;1.91;60.12
68456;BME280;55437;55.046;38.838;2023-01-27T10:29:44;100427.53;;;1.89;60.05
68456;BME280;55437;55.046;38.838;2023-01-27T10:32:55;100422.38;;;1.83;60.43
68456;BME280;55437;55.046;38.838;2023-01-27T10:35:22;100413.94;;;1.84;60.33
68456;BME280;55437;55.046;38.838;2023-01-27T10:40:47;100420.16;;;2.08;60.05
68456;BME280;55437;55.046;38.838;2023-01-27T10:46:02;100425.00;;;1.90;60.54
68456;BME280;55437;55.046;38.838;2023-01-27T10:48:42;100421.78;;;2.02;60.07
68456;BME280;55437;55.046;38.838;2023-01-27T10:51:16;100423.53;;;2.09;60.02
68456;BME280;55437;55.046;38.838;2023-01-27T10:54:01;100425.16;;;2.05;60.25
68456;BME280;55437;55.046;38.838;2023-01-27T11:01:33;100434.25;;;1.87;60.51
68456;BME280;55437;55.046;38.838;2023-01-27T11:06:51;100423.28;;;1.88;60.66
68456;BME280;55437;55.046;38.838;2023-01-27T11:09:26;100431.69;;;1.85;60.87
68456;BME280;55437;55.046;38.838;2023-01-27T11:11:57;100439.28;;;1.85;60.88
68456;BME280;55437;55.046;38.838;2023-01-27T11:14:29;100438.41;;;1.83;61.06
68456;BME280;55437;55.046;38.838;2023-01-27T11:20:00;100441.97;;;1.97;60.75
68456;BME280;55437;55.046;38.838;2023-01-27T11:22:54;100436.16;;;2.04;60.47
68456;BME280;55437;55.046;38.838;2023-01-27T11:36:56;100449.81;;;2.17;60.49
68456;BME280;55437;55.046;38.838;2023-01-27T11:39:22;100449.84;;;2.20;60.44
68456;BME280;55437;55.046;38.838;2023-01-27T11:41:53;100459.25;;;2.32;60.42
68456;BME280;55437;55.046;38.838;2023-01-27T11:44:26;100451.56;;;2.23;60.48
68456;BME280;55437;55.046;38.838;2023-01-27T11:46:54;100440.38;;;2.05;60.64
68456;BME280;55437;55.046;38.838;2023-01-27T11:49:33;100440.31;;;1.99;60.99
68456;BME280;55437;55.046;38.838;2023-01-27T11:52:07;100444.59;;;2.03;60.92
68456;BME280;55437;55.046;38.838;2023-01-27T11:55:29;100448.72;;;1.98;60.97
68456;BME280;55437;55.046;38.838;2023-01-27T11:57:35;100448.78;;;2.01;60.77
68456;BME280;55437;55.046;38.838;2023-01-27T12:00:06;100451.25;;;1.97;60.78
68456;BME280;55437;55.046;38.838;2023-01-27T12:03:05;100446.28;;;2.03;61.17
68456;BME280;55437;55.046;38.838;2023-01-27T12:05:36;100442.03;;;2.02;60.89
68456;BME280;55437;55.046;38.838;2023-01-27T12:08:05;100445.41;;;2.02;60.77
68456;BME280;55437;55.046;38.838;2023-01-27T12:10:37;100442.88;;;2.02;61.15
68456;BME280;55437;55.046;38.838;2023-01-27T12:13:20;100442.84;;;1.99;61.11
68456;BME280;55437;55.046;38.838;2023-01-27T12:16:04;100453.94;;;2.09;60.94
68456;BME280;55437;55.046;38.838;2023-01-27T12:18:34;100451.47;;;2.15;60.66
68456;BME280;55437;55.046;38.838;2023-01-27T12:21:03;100444.75;;;2.15;60.91
68456;BME280;55437;55.046;38.838;2023-01-27T12:23:45;100449.59;;;1.99;61.28
68456;BME280;55437;55.046;38.838;2023-01-27T12:26:12;100461.41;;;1.98;60.99
68456;BME280;55437;55.046;38.838;2023-01-27T12:28:48;100464.78;;;1.99;61.04
68456;BME280;55437;55.046;38.838;2023-01-27T12:31:23;100456.34;;;1.98;61.14
68456;BME280;55437;55.046;38.838;2023-01-27T12:34:27;100464.03;;;2.04;61.12
68456;BME280;55437;55.046;38.838;2023-01-27T12:36:52;100465.84;;;2.17;60.87
68456;BME280;55437;55.046;38.838;2023-01-27T12:39:30;100450.66;;;2.17;60.52
68456;BME280;55437;55.046;38.838;2023-01-27T12:41:57;100461.59;;;2.13;60.56
68456;BME280;55437;55.046;38.838;2023-01-27T12:44:22;100466.44;;;1.97;61.43
68456;BME280;55437;55.046;38.838;2023-01-27T12:49:48;100460.50;;;1.95;61.49
68456;BME280;55437;55.046;38.838;2023-01-27T12:52:20;100463.03;;;1.95;61.13
68456;BME280;55437;55.046;38.838;2023-01-27T12:54:46;100463.88;;;1.92;61.40
68456;BME280;55437;55.046;38.838;2023-01-27T12:57:19;100454.59;;;1.94;61.59
68456;BME280;55437;55.046;38.838;2023-01-27T12:59:56;100460.50;;;1.93;61.26
68456;BME280;55437;55.046;38.838;2023-01-27T13:02:24;100459.53;;;1.85;61.45
68456;BME280;55437;55.046;38.838;2023-01-27T13:04:53;100456.00;;;1.72;61.76
68456;BME280;55437;55.046;38.838;2023-01-27T13:07:24;100459.44;;;1.77;62.06
68456;BME280;55437;55.046;38.838;2023-01-27T13:09:54;100457.75;;;1.78;62.00
68456;BME280;55437;55.046;38.838;2023-01-27T13:12:26;100455.28;;;1.81;61.69
68456;BME280;55437;55.046;38.838;2023-01-27T13:14:55;100458.75;;;1.89;61.67
68456;BME280;55437;55.046;38.838;2023-01-27T13:19:52;100454.81;;;2.12;61.32
68456;BME280;55437;55.046;38.838;2023-01-27T13:22:22;100462.38;;;2.09;61.41
68456;BME280;55437;55.046;38.838;2023-01-27T13:24:55;100470.66;;;1.96;61.64
68456;BME280;55437;55.046;38.838;2023-01-27T13:27:24;100462.13;;;1.90;61.57
68456;BME280;55437;55.046;38.838;2023-01-27T13:29:58;100465.50;;;1.89;61.48
68456;BME280;55437;55.046;38.838;2023-01-27T13:32:31;100461.22;;;1.85;61.77
68456;BME280;55437;55.046;38.838;2023-01-27T13:40:21;100478.13;;;1.87;62.19
68456;BME280;55437;55.046;38.838;2023-01-27T13:42:53;100471.28;;;1.81;61.99
68456;BME280;55437;55.046;38.838;2023-01-27T13:45:22;100474.66;;;1.79;62.14
68456;BME280;55437;55.046;38.838;2023-01-27T13:47:57;100482.25;;;1.79;61.88
68456;BME280;55437;55.046;38.838;2023-01-27T13:50:32;100481.44;;;1.80;61.72
68456;BME280;55437;55.046;38.838;2023-01-27T13:53:00;100489.91;;;1.84;61.93
68456;BME280;55437;55.046;38.838;2023-01-27T14:01:23;100482.16;;;1.73;62.38
68456;BME280;55437;55.046;38.838;2023-01-27T14:12:00;100485.38;;;1.63;62.62
68456;BME280;55437;55.046;38.838;2023-01-27T14:14:50;100489.81;;;1.76;62.16
68456;BME280;55437;55.046;38.838;2023-01-27T14:17:28;100496.69;;;1.86;62.00
68456;BME280;55437;55.046;38.838;2023-01-27T14:25:59;100499.28;;;1.89;62.16
68456;BME280;55437;55.046;38.838;2023-01-27T14:31:46;100499.09;;;1.77;62.02